UNEE/KEJ METAR and TAF weather

Enter ICAO airport designator
Station Type Date Time Source
UNEE METAR 2019/04/25 15:30 UTC NOAA

UNEE 251530Z 17007G12MPS 9999 SCT040 10/02 Q1003 R23/CLRD60 NOSIG RMK QFE729


Station Type Date Time Source
UNEE Decoded METAR 2019/04/25 15:30 UTC NOAA

Kemerovo, Russia (UNEE) 55-19-48N 086-04-48E
Apr 25, 2019 - 11:30 AM EDT / 2019.04.25 1530 UTC
Wind: from the S (170 degrees) at 16 MPH (14 KT) gusting to 27 MPH (23 KT):0
Visibility: greater than 7 mile(s):0
Sky conditions: partly cloudy
Temperature: 50 F (10 C)
Dew Point: 35 F (2 C)
Relative Humidity: 57%
Pressure (altimeter): 29.62 in. Hg (1003 hPa)
ob: UNEE 251530Z 17007G12MPS 9999 SCT040 10/02 Q1003 R23/CLRD60 NOSIG RMK QFE729
cycle: 15

Station Type Date Time Source
UNEE TAF 2019/04/25 15:21 UTC NOAA

TAF TAF UNEE 251400Z 2515/2615 22009G18MPS 9999 BKN020CB
TEMPO 2515/2520 27003G08MPS 3100 -TSRA SCT005 BKN011CB
BECMG 2520/2522 27003G08MPS
TEMPO 2600/2615 29009G16MPS 3100 -SHRA BKN011CB

Example: see airport list